Ball, LA (71405)

3:19 PM CDT on August 29, 2015 (GMT -0500)
Paradise | | Change Station
CLOSE
Current Station
Personal Weather Station
Location: Ball, LA
Elevation: 144 ft
Nearby Weather Stations

Elev 144 ft 31.41 °N, 92.39 °W | Updated 6 minutes ago

Clear
Clear
91.8 °F
Feels Like 92 °F
N
3.2
Wind Variable Wind from NE

Today
High -- | Low -- °F
--% Chance of Precip.
Yesterday
High -- | Low -- °F
Precip. -- in
6:43 AM 7:37 PM
Full, 100% visible
Pressure 30.00 in
Visibility 10.0 miles
Clouds Few 8000 ft
Heat Index 92 °F
Dew Point 62 °F
Humidity 37%
Rainfall 0.00 in
Snow Depth Not available.
UV 9 out of 12
Pollen 8.10 out of 12
Air Quality Not available.
Flu Activity Not available.
METAR KESF 291953Z AUTO 09006KT 10SM FEW080 34/15 A3001 RMK AO2 SLP159 T03440150
Pressure 30.00 in
Visibility 10.0 miles
Clouds Few 8000 ft
Heat Index 92 °F
Dew Point 62 °F
Humidity 37%
Rainfall 0.00 in
Snow Depth Not available.
UV 9 out of 12
Pollen 8.10 out of 12
Air Quality Not available.
Flu Activity Not available.
METAR KESF 291953Z AUTO 09006KT 10SM FEW080 34/15 A3001 RMK AO2 SLP159 T03440150

10-Day Weather Forecast

×

Almanac

Astronomy

Aug. 29, 2015 Rise Set
Actual Time
Civil Twilight
Nautical Twilight
Astronomical Twilight
Moon
Length of Visible Light
Length of Day
Tomorrow will be .
, % of the Moon is Illuminated

Today's Extremes

State Highs State Lows

Community

WunderPhotos

Upload Photos

1,850,795 photos uploaded!

WunderBlogs® & News

Nearby

Air Quality

  Air Quality AQ Index Pollutant
Not available.

Snow Depth

Station Depth Elevation

Earthquake Activity

City Distance Mag. Time & Date
Minimum magnitude displayed is 2.5.

Coastal Water Temperatures

Place Temperature

Stations

Nearby Weather Stations

Station Location Temp. Windchill Dew Point Humidity Wind Precip. Elev Updated Type